Time;durP1;ratioP1;P1;durP2;ratioP2;P2;SDS_P1;SDS_P2;PMS_P1;PMS_P2;Temp;Humidity;BMP_temperature;BMP_pressure;BME280_temperature;BME280_humidity;BME280_pressure;Samples;Min_cycle;Max_cycle;Signal;HPM_P1;HPM_P2
2022/01/29 10:12:26;;;;;;;13.40;12.70;;;6.90;99.90;;;;;;5107187;27;20632;-74
2022/01/29 10:14:55;;;;;;;12.10;11.50;;;9.20;99.90;;;;;;5107375;28;20815;-74
2022/01/29 10:17:42;;;;;;;11.90;11.30;;;9.20;99.90;;;;;;5107507;28;20667;-74
2022/01/29 10:20:15;;;;;;;12.80;12.00;;;9.10;99.90;;;;;;5107156;28;20438;-74
2022/01/29 10:22:44;;;;;;;12.40;11.60;;;8.90;99.90;;;;;;5107255;28;20639;-74
2022/01/29 10:25:14;;;;;;;13.20;12.37;;;8.80;99.90;;;;;;5107198;28;20457;-74
2022/01/29 10:28:07;;;;;;;12.17;11.47;;;8.90;99.90;;;;;;5107127;28;20438;-74
2022/01/29 10:30:36;;;;;;;12.83;12.03;;;9.00;99.90;;;;;;5107294;28;20484;-75
2022/01/29 10:33:17;;;;;;;12.77;12.07;;;9.20;99.90;;;;;;5106971;28;20449;-75
2022/01/29 10:35:45;;;;;;;12.90;12.10;;;9.40;99.90;;;;;;5106985;28;20537;-74
2022/01/29 10:38:11;;;;;;;12.50;11.70;;;9.40;99.90;;;;;;5106761;28;20447;-74
2022/01/29 10:40:38;;;;;;;13.40;12.27;;;9.20;99.90;;;;;;5106932;28;20437;-75
2022/01/29 10:43:07;;;;;;;11.70;10.90;;;9.50;99.90;;;;;;5107083;28;20456;-74
2022/01/29 10:45:36;;;;;;;11.17;10.57;;;9.70;99.90;;;;;;5107116;28;20472;-74
2022/01/29 10:48:06;;;;;;;11.97;11.30;;;9.90;99.90;;;;;;5106784;28;20456;-74
2022/01/29 10:50:34;;;;;;;12.00;11.20;;;9.60;99.90;;;;;;5106716;28;20481;-75
2022/01/29 10:53:24;;;;;;;11.50;10.90;;;9.50;99.90;;;;;;5106666;28;20477;-75
2022/01/29 10:56:03;;;;;;;11.50;11.00;;;9.70;99.90;;;;;;5106845;28;20451;-75
2022/01/29 10:58:31;;;;;;;11.97;11.27;;;9.70;99.90;;;;;;5106333;28;20445;-75
2022/01/29 11:01:19;;;;;;;11.30;10.70;;;9.70;99.90;;;;;;5106356;28;20441;-75
2022/01/29 11:03:46;;;;;;;11.97;11.13;;;9.60;99.90;;;;;;5106146;28;20473;-75
2022/01/29 11:06:16;;;;;;;11.30;10.60;;;9.70;99.90;;;;;;5106290;28;20456;-75
2022/01/29 11:08:45;;;;;;;11.80;11.13;;;9.80;99.90;;;;;;5106388;28;20862;-74
2022/01/29 11:11:12;;;;;;;10.60;10.00;;;9.60;99.90;;;;;;5104758;28;20487;-74
2022/01/29 11:13:43;;;;;;;11.17;10.57;;;9.60;99.90;;;;;;5092279;28;20507;-75
2022/01/29 11:16:11;;;;;;;10.67;10.13;;;9.60;99.90;;;;;;5092505;28;20461;-75
2022/01/29 11:18:37;;;;;;;11.07;10.37;;;9.50;99.90;;;;;;5092599;28;20442;-74
2022/01/29 11:21:05;;;;;;;10.17;9.67;;;9.50;99.90;;;;;;5092718;28;20453;-74
2022/01/29 11:23:32;;;;;;;9.73;9.30;;;9.60;99.90;;;;;;5092494;28;20446;-74
2022/01/29 11:26:01;;;;;;;10.30;9.80;;;9.70;99.90;;;;;;5092293;28;20735;-74
2022/01/29 11:28:29;;;;;;;10.90;10.10;;;9.90;99.90;;;;;;5092288;28;20454;-75
2022/01/29 11:31:21;;;;;;;10.70;10.00;;;10.10;99.90;;;;;;5092073;28;20559;-75
2022/01/29 11:34:22;;;;;;;11.13;10.40;;;10.00;99.90;;;;;;5082633;28;20950;-74
2022/01/29 11:37:05;;;;;;;10.40;10.00;;;10.00;99.90;;;;;;5088219;28;20595;-74
2022/01/29 11:39:34;;;;;;;10.23;9.73;;;9.80;99.90;;;;;;5092204;28;20548;-75
2022/01/29 11:42:29;;;;;;;9.37;8.97;;;9.80;99.90;;;;;;5092241;28;20537;-74
2022/01/29 11:44:56;;;;;;;10.00;9.50;;;9.60;99.90;;;;;;5092064;28;20488;-74
2022/01/29 11:47:49;;;;;;;10.23;9.77;;;9.60;99.90;;;;;;5092112;28;20832;-74
2022/01/29 11:50:44;;;;;;;8.50;8.10;;;9.60;99.90;;;;;;5091868;28;20454;-73
2022/01/29 11:53:11;;;;;;;9.77;9.37;;;9.60;99.90;;;;;;5084752;28;20486;-74
2022/01/29 11:55:40;;;;;;;9.90;9.50;;;9.70;99.90;;;;;;5091902;28;20945;-74
2022/01/29 11:58:22;;;;;;;10.60;10.10;;;9.60;99.90;;;;;;5091923;28;20870;-75
2022/01/29 12:00:52;;;;;;;10.10;9.60;;;9.60;99.90;;;;;;5091899;28;20545;-75
2022/01/29 12:03:57;;;;;;;9.80;9.40;;;9.50;99.90;;;;;;5091886;28;20520;-74
2022/01/29 12:06:27;;;;;;;10.17;9.50;;;9.80;99.90;;;;;;5091745;28;20453;-74
2022/01/29 12:09:33;;;;;;;10.90;10.40;;;9.70;99.90;;;;;;5091712;28;20454;-75
2022/01/29 12:12:17;;;;;;;9.70;9.30;;;9.50;99.90;;;;;;5091416;28;20486;-75
2022/01/29 12:14:45;;;;;;;9.97;9.57;;;9.10;99.90;;;;;;5091560;28;20479;-75
2022/01/29 12:17:12;;;;;;;10.63;9.83;;;9.00;99.90;;;;;;5091415;28;20458;-75
2022/01/29 12:19:41;;;;;;;9.80;9.30;;;9.10;99.90;;;;;;5091625;28;20442;-75
2022/01/29 12:22:10;;;;;;;11.50;10.70;;;9.20;99.90;;;;;;5091682;28;20500;-76
2022/01/29 12:24:38;;;;;;;9.70;9.20;;;9.00;99.90;;;;;;5090682;28;20870;-75
2022/01/29 12:27:05;;;;;;;10.10;9.60;;;8.90;99.90;;;;;;5091468;28;20461;-75
2022/01/29 12:29:32;;;;;;;10.63;9.93;;;8.80;99.90;;;;;;5091478;28;20446;-75
2022/01/29 12:31:59;;;;;;;10.40;9.90;;;8.80;99.90;;;;;;5091165;28;21120;-76
2022/01/29 12:34:27;;;;;;;10.60;10.00;;;8.70;99.90;;;;;;5090907;28;20446;-75
2022/01/29 12:37:07;;;;;;;11.43;10.83;;;8.70;99.90;;;;;;5091149;28;20450;-75
2022/01/29 12:39:34;;;;;;;10.43;9.87;;;8.70;99.90;;;;;;5091332;28;20454;-75
2022/01/29 12:42:06;;;;;;;10.10;9.70;;;8.80;99.90;;;;;;5091049;28;20848;-75
2022/01/29 12:44:33;;;;;;;10.83;10.40;;;8.80;99.90;;;;;;5091126;28;20450;-76
2022/01/29 12:47:00;;;;;;;11.87;11.27;;;8.80;99.90;;;;;;5090910;28;20461;-75
2022/01/29 12:49:26;;;;;;;10.37;9.80;;;9.00;99.90;;;;;;5090716;28;20462;-75
2022/01/29 12:51:56;;;;;;;10.80;10.30;;;9.10;99.90;;;;;;5090831;28;20481;-75
2022/01/29 12:54:26;;;;;;;10.80;9.90;;;9.40;99.90;;;;;;5090764;28;20446;-75
2022/01/29 12:56:56;;;;;;;10.03;9.57;;;9.40;99.90;;;;;;5090756;28;20478;-74
2022/01/29 12:59:23;;;;;;;10.87;10.10;;;9.50;99.90;;;;;;5090822;28;20453;-74
2022/01/29 13:01:50;;;;;;;9.50;9.03;;;9.30;99.90;;;;;;5090702;28;20840;-75
2022/01/29 13:04:19;;;;;;;11.23;10.63;;;9.10;99.90;;;;;;5090575;28;20844;-74
2022/01/29 13:06:47;;;;;;;9.80;9.30;;;8.90;99.90;;;;;;5090472;28;20504;-74
2022/01/29 13:09:19;;;;;;;10.17;9.70;;;8.90;99.90;;;;;;5090388;28;20725;-74
2022/01/29 13:11:48;;;;;;;9.60;9.20;;;9.00;99.90;;;;;;5090089;28;20513;-74
2022/01/29 13:14:16;;;;;;;10.20;9.80;;;8.90;99.90;;;;;;5090527;28;20442;-74
2022/01/29 13:16:43;;;;;;;9.53;9.23;;;8.90;99.90;;;;;;5090324;28;20450;-75
2022/01/29 13:19:10;;;;;;;10.13;9.73;;;8.90;99.90;;;;;;5090268;28;20449;-74
2022/01/29 13:21:37;;;;;;;10.43;10.03;;;8.70;99.90;;;;;;5090376;28;20446;-75
2022/01/29 13:24:30;;;;;;;10.03;9.63;;;8.70;99.90;;;;;;5090408;28;20476;-75
2022/01/29 13:27:02;;;;;;;10.67;10.10;;;8.60;99.90;;;;;;5090028;28;20969;-75
2022/01/29 13:29:33;;;;;;;9.43;9.13;;;8.60;99.90;;;;;;5090106;28;20461;-75
2022/01/29 13:32:00;;;;;;;10.63;10.03;;;8.40;99.90;;;;;;5090141;28;20489;-74
2022/01/29 13:34:28;;;;;;;9.40;9.10;;;8.20;99.90;;;;;;5089580;28;20456;-75
2022/01/29 13:36:55;;;;;;;10.53;10.00;;;8.20;99.90;;;;;;5090027;28;20454;-74
2022/01/29 13:39:23;;;;;;;10.80;10.30;;;8.20;99.90;;;;;;5090413;28;20461;-74
2022/01/29 13:42:10;;;;;;;11.80;11.20;;;8.20;99.90;;;;;;5090174;28;20442;-74
2022/01/29 13:44:37;;;;;;;11.17;10.77;;;8.10;99.90;;;;;;5090208;28;20464;-74
2022/01/29 13:47:08;;;;;;;10.80;10.40;;;8.20;99.90;;;;;;5090185;28;20442;-76
2022/01/29 13:49:36;;;;;;;11.33;10.73;;;8.20;99.90;;;;;;5090011;28;20449;-75
2022/01/29 13:52:14;;;;;;;10.63;10.03;;;8.20;99.90;;;;;;5089795;28;20520;-75
2022/01/29 13:54:40;;;;;;;10.40;9.90;;;8.20;99.90;;;;;;5089741;28;20491;-75
2022/01/29 13:57:10;;;;;;;10.40;10.00;;;8.20;99.90;;;;;;5089851;28;20482;-75
2022/01/29 13:59:37;;;;;;;9.97;9.57;;;8.20;99.90;;;;;;5090090;28;20450;-75
2022/01/29 14:02:07;;;;;;;10.17;9.77;;;8.10;99.90;;;;;;5089696;28;20874;-75
2022/01/29 14:04:38;;;;;;;10.40;9.97;;;8.20;99.90;;;;;;5089911;28;20865;-75
2022/01/29 14:07:07;;;;;;;10.43;9.90;;;8.30;99.90;;;;;;5089952;28;20456;-75
2022/01/29 14:09:36;;;;;;;10.60;9.90;;;8.30;99.90;;;;;;5089733;28;20462;-75
2022/01/29 14:12:16;;;;;;;10.07;9.57;;;8.40;99.90;;;;;;5089493;28;20493;-74
2022/01/29 14:14:45;;;;;;;9.47;8.97;;;8.40;99.90;;;;;;5089667;28;20457;-74
2022/01/29 14:17:14;;;;;;;9.83;9.40;;;8.30;99.90;;;;;;5089196;28;20446;-75
2022/01/29 14:19:42;;;;;;;9.13;8.73;;;8.20;99.90;;;;;;5089474;28;20449;-75
2022/01/29 14:22:10;;;;;;;9.17;8.67;;;8.30;99.90;;;;;;5089294;28;20544;-75
2022/01/29 14:24:38;;;;;;;11.10;10.50;;;8.30;99.90;;;;;;5089611;28;20460;-76
2022/01/29 14:27:06;;;;;;;9.73;9.33;;;8.20;99.90;;;;;;5089624;28;20443;-75
2022/01/29 14:29:35;;;;;;;9.50;9.20;;;8.20;99.90;;;;;;5069663;28;20469;-75
2022/01/29 14:32:02;;;;;;;9.73;9.33;;;8.30;99.90;;;;;;5069202;28;20486;-74
2022/01/29 14:34:29;;;;;;;9.83;9.33;;;8.30;99.90;;;;;;5069163;28;20894;-75
2022/01/29 14:36:58;;;;;;;10.37;9.97;;;8.20;99.90;;;;;;5069098;28;20945;-75
2022/01/29 14:39:26;;;;;;;8.63;7.93;;;8.10;99.90;;;;;;5069106;28;20449;-75
2022/01/29 14:41:53;;;;;;;10.03;9.47;;;8.00;99.90;;;;;;5069463;28;20450;-76
2022/01/29 14:44:20;;;;;;;9.40;9.00;;;8.10;99.90;;;;;;5069395;28;20476;-76
2022/01/29 14:46:48;;;;;;;10.90;10.30;;;8.00;99.90;;;;;;5069477;28;20450;-76
2022/01/29 14:49:15;;;;;;;9.60;9.20;;;8.00;99.90;;;;;;5072750;28;20462;-75
2022/01/29 14:51:45;;;;;;;10.63;10.13;;;8.00;99.90;;;;;;5072898;28;20474;-76
2022/01/29 14:54:12;;;;;;;10.03;9.50;;;8.00;99.90;;;;;;5072725;28;20542;-75
2022/01/29 14:56:42;;;;;;;10.77;10.17;;;7.90;99.90;;;;;;5072645;28;20544;-75
2022/01/29 14:59:09;;;;;;;9.30;8.90;;;8.00;99.90;;;;;;5072671;28;20450;-76
2022/01/29 15:01:36;;;;;;;10.00;9.50;;;8.00;99.90;;;;;;5072834;28;20457;-75
2022/01/29 15:04:04;;;;;;;9.73;9.43;;;8.00;99.90;;;;;;5072620;28;20828;-74
2022/01/29 15:06:30;;;;;;;10.50;9.60;;;8.00;99.90;;;;;;5072388;28;20487;-75
2022/01/29 15:08:57;;;;;;;9.60;9.20;;;8.00;99.90;;;;;;5072218;28;20446;-76
2022/01/29 15:11:25;;;;;;;10.17;9.67;;;8.10;99.90;;;;;;5072213;28;20494;-77
2022/01/29 15:13:52;;;;;;;10.07;9.57;;;8.10;99.90;;;;;;5072655;28;20455;-75
2022/01/29 15:16:19;;;;;;;10.30;9.80;;;8.00;99.90;;;;;;5072400;28;20450;-75
2022/01/29 15:18:46;;;;;;;9.80;9.30;;;8.00;99.90;;;;;;5072065;28;20458;-75
2022/01/29 15:21:14;;;;;;;9.93;9.37;;;8.00;99.90;;;;;;5072112;28;20710;-75
2022/01/29 15:23:41;;;;;;;9.97;9.57;;;8.00;99.90;;;;;;5071965;28;20453;-75
2022/01/29 15:26:08;;;;;;;10.37;9.87;;;8.00;99.90;;;;;;5072231;28;20451;-75
2022/01/29 15:28:36;;;;;;;10.70;10.00;;;8.10;99.90;;;;;;5072366;28;20455;-75
2022/01/29 15:31:05;;;;;;;10.73;10.30;;;8.10;99.90;;;;;;5072165;28;21052;-75
2022/01/29 15:33:32;;;;;;;9.33;8.97;;;8.00;99.90;;;;;;5071813;28;20490;-75
2022/01/29 15:36:00;;;;;;;10.73;10.13;;;8.10;99.90;;;;;;5071833;28;20465;-75
2022/01/29 15:38:29;;;;;;;10.20;9.80;;;8.10;99.90;;;;;;5071894;28;20679;-76
2022/01/29 15:40:58;;;;;;;9.90;9.50;;;8.20;99.90;;;;;;5071989;28;20867;-75
2022/01/29 15:43:26;;;;;;;11.43;10.50;;;8.00;99.90;;;;;;5071774;28;20856;-76
2022/01/29 15:45:54;;;;;;;10.90;10.27;;;8.10;99.90;;;;;;5071669;28;20933;-76
2022/01/29 15:48:22;;;;;;;10.27;9.77;;;8.10;99.90;;;;;;5071990;28;20451;-76
2022/01/29 15:50:49;;;;;;;11.37;10.87;;;8.10;99.90;;;;;;5071952;28;20449;-76
2022/01/29 15:53:16;;;;;;;10.33;9.80;;;8.00;99.90;;;;;;5071656;28;20981;-75
2022/01/29 15:55:44;;;;;;;10.60;10.10;;;8.00;99.90;;;;;;5071454;28;20454;-76
2022/01/29 15:58:17;;;;;;;10.50;10.10;;;8.10;99.90;;;;;;5071363;28;20450;-75
2022/01/29 16:00:46;;;;;;;10.50;10.00;;;8.10;99.90;;;;;;5071396;28;20497;-75
2022/01/29 16:03:13;;;;;;;10.47;9.97;;;8.10;99.90;;;;;;5071324;28;20463;-76
2022/01/29 16:05:40;;;;;;;10.00;9.40;;;8.00;99.90;;;;;;5071536;28;20455;-75
2022/01/29 16:08:06;;;;;;;10.57;9.97;;;8.00;99.90;;;;;;5071471;28;20462;-76
2022/01/29 16:10:33;;;;;;;10.40;9.90;;;7.90;99.90;;;;;;5071379;28;20493;-75
2022/01/29 16:13:01;;;;;;;9.30;8.90;;;7.80;99.90;;;;;;5071189;28;20491;-75
2022/01/29 16:15:27;;;;;;;10.37;9.87;;;7.80;99.90;;;;;;5071207;28;20454;-75
2022/01/29 16:17:54;;;;;;;10.57;10.10;;;7.80;99.90;;;;;;5071090;28;20454;-75
2022/01/29 16:20:21;;;;;;;10.47;9.97;;;7.60;99.90;;;;;;5071554;28;20454;-76
2022/01/29 16:22:48;;;;;;;10.27;9.77;;;7.60;99.90;;;;;;5071398;28;20449;-75
2022/01/29 16:25:15;;;;;;;11.13;10.40;;;7.50;99.90;;;;;;5070964;28;20458;-75
2022/01/29 16:27:42;;;;;;;10.50;10.00;;;7.50;99.90;;;;;;5070968;28;20458;-74
2022/01/29 16:30:11;;;;;;;10.30;9.90;;;7.50;99.90;;;;;;5070910;28;20456;-75
2022/01/29 16:32:41;;;;;;;11.43;10.77;;;7.50;99.90;;;;;;5070846;28;20483;-75
2022/01/29 16:35:08;;;;;;;10.30;9.80;;;7.40;99.90;;;;;;5070919;28;20486;-75
2022/01/29 16:37:35;;;;;;;10.10;9.70;;;7.40;99.90;;;;;;5070971;28;20454;-74
2022/01/29 16:40:02;;;;;;;10.90;10.40;;;7.30;99.90;;;;;;5070968;28;20562;-75
2022/01/29 16:42:29;;;;;;;9.73;9.23;;;7.40;99.90;;;;;;5070852;28;20715;-75
2022/01/29 16:44:55;;;;;;;9.90;9.40;;;7.30;99.90;;;;;;5070916;28;20453;-74
2022/01/29 16:47:23;;;;;;;10.03;9.53;;;7.30;99.90;;;;;;5071103;28;20458;-74
2022/01/29 16:49:50;;;;;;;9.97;9.57;;;7.30;99.90;;;;;;5071319;28;20543;-75
2022/01/29 16:52:17;;;;;;;10.00;9.60;;;7.30;99.90;;;;;;5071827;28;20490;-74
2022/01/29 16:54:45;;;;;;;10.30;9.50;;;7.30;99.90;;;;;;5071913;28;20509;-75
2022/01/29 16:57:11;;;;;;;10.27;9.77;;;7.30;99.90;;;;;;5071824;28;20874;-75
2022/01/29 16:59:38;;;;;;;10.00;9.50;;;7.40;99.90;;;;;;5072204;28;20535;-77
2022/01/29 17:02:05;;;;;;;11.03;10.50;;;7.30;99.90;;;;;;5073024;28;20549;-75
2022/01/29 17:04:33;;;;;;;11.40;10.90;;;7.30;99.90;;;;;;5071613;28;20461;-75
2022/01/29 17:07:00;;;;;;;11.10;10.50;;;7.30;99.90;;;;;;5071551;28;20443;-74
2022/01/29 17:09:27;;;;;;;10.60;10.10;;;7.30;99.90;;;;;;5070687;28;20441;-74
2022/01/29 17:11:54;;;;;;;9.70;9.30;;;7.30;99.90;;;;;;5070516;28;20479;-74
2022/01/29 17:14:21;;;;;;;10.13;9.63;;;7.40;99.90;;;;;;5070382;28;20442;-74
2022/01/29 17:16:48;;;;;;;10.60;9.97;;;7.30;99.90;;;;;;5070043;28;20457;-74
2022/01/29 17:19:15;;;;;;;10.17;9.77;;;7.30;99.90;;;;;;5070149;28;21000;-74
2022/01/29 17:21:43;;;;;;;9.53;9.13;;;7.40;99.90;;;;;;5070053;28;20456;-73
2022/01/29 17:24:10;;;;;;;10.37;9.87;;;7.40;99.90;;;;;;5070004;28;20446;-75
2022/01/29 17:26:37;;;;;;;11.17;10.67;;;7.40;99.90;;;;;;5070042;28;20472;-74
2022/01/29 17:29:03;;;;;;;11.13;10.63;;;7.40;99.90;;;;;;5069936;28;20446;-73
2022/01/29 17:31:30;;;;;;;10.60;10.00;;;7.40;99.90;;;;;;5069901;28;20511;-75
2022/01/29 17:33:57;;;;;;;9.50;9.00;;;7.40;99.90;;;;;;5069778;28;20505;-75
2022/01/29 17:36:23;;;;;;;10.23;9.73;;;7.50;99.90;;;;;;5069885;28;20459;-75
2022/01/29 17:38:51;;;;;;;11.43;10.30;;;7.50;99.90;;;;;;5070057;28;20960;-74
2022/01/29 17:41:20;;;;;;;9.20;8.80;;;7.50;99.90;;;;;;5069935;28;20454;-75
2022/01/29 17:43:48;;;;;;;8.80;8.50;;;7.50;99.90;;;;;;5069633;28;20475;-73
2022/01/29 17:46:15;;;;;;;9.80;9.30;;;7.50;99.90;;;;;;5069710;28;20458;-74
2022/01/29 17:48:42;;;;;;;10.37;9.77;;;7.50;99.90;;;;;;5069663;28;20718;-74
2022/01/29 17:51:09;;;;;;;10.50;10.10;;;7.50;99.90;;;;;;5069662;28;20451;-74
2022/01/29 17:53:36;;;;;;;9.03;8.53;;;7.50;99.90;;;;;;5069666;28;20482;-74
2022/01/29 17:56:06;;;;;;;10.03;9.57;;;7.50;99.90;;;;;;5069998;28;20459;-74
2022/01/29 17:58:33;;;;;;;9.87;9.43;;;7.50;99.90;;;;;;5069872;28;20478;-73
